Time;durP1;ratioP1;P1;durP2;ratioP2;P2;SDS_P1;SDS_P2;PMS_P1;PMS_P2;Temp;Humidity;BMP_temperature;BMP_pressure;BME280_temperature;BME280_humidity;BME280_pressure;Samples;Min_cycle;Max_cycle;Signal;HPM_P1;HPM_P2
2024/01/24 00:02:03;;;;;;;6.38;2.30;;;;;;;12.57;100.00;101212.72;5005780;28;20592;-68
2024/01/24 00:04:30;;;;;;;4.30;1.85;;;;;;;12.59;100.00;101215.28;5002544;28;20042;-68
2024/01/24 00:06:57;;;;;;;8.70;2.25;;;;;;;12.63;100.00;101219.59;5005749;28;20097;-68
2024/01/24 00:09:24;;;;;;;4.43;2.17;;;;;;;12.64;100.00;101189.56;4998808;28;20081;-68
2024/01/24 00:11:51;;;;;;;5.80;1.90;;;;;;;12.69;100.00;101192.06;5007153;28;20490;-68
2024/01/24 00:14:19;;;;;;;6.40;2.05;;;;;;;12.70;100.00;101201.72;5005989;28;20124;-68
2024/01/24 00:16:46;;;;;;;4.75;2.17;;;;;;;12.72;100.00;101198.13;5007747;28;20117;-68
2024/01/24 00:19:13;;;;;;;8.43;1.80;;;;;;;12.74;100.00;101198.06;5004864;28;20065;-68
2024/01/24 00:21:40;;;;;;;6.55;1.90;;;;;;;12.76;100.00;101201.50;5011766;28;20045;-68
2024/01/24 00:24:07;;;;;;;7.65;2.13;;;;;;;12.78;100.00;101202.34;5005055;28;20050;-70
2024/01/24 00:26:38;;;;;;;4.82;2.10;;;;;;;12.78;100.00;101196.16;5005084;28;20042;-70
2024/01/24 00:29:05;;;;;;;5.18;2.20;;;;;;;12.79;100.00;101192.59;5004507;28;20065;-71
2024/01/24 00:31:32;;;;;;;6.05;1.75;;;;;;;12.79;100.00;101190.84;5005982;28;20116;-68
2024/01/24 00:33:59;;;;;;;5.45;1.90;;;;;;;12.83;100.00;101181.84;5005920;28;20061;-71
2024/01/24 00:36:26;;;;;;;4.10;1.70;;;;;;;12.86;100.00;101157.09;5006096;28;20046;-67
2024/01/24 00:38:54;;;;;;;5.55;2.25;;;;;;;12.87;100.00;101156.19;5006706;28;20498;-70
2024/01/24 00:41:21;;;;;;;3.17;1.45;;;;;;;12.91;100.00;101165.72;5004580;28;20066;-70
2024/01/24 00:43:48;;;;;;;3.72;1.58;;;;;;;12.88;100.00;101161.41;5003000;28;20041;-69
2024/01/24 00:46:15;;;;;;;5.80;2.00;;;;;;;12.91;100.00;101152.50;5003704;28;20077;-69
2024/01/24 00:48:42;;;;;;;4.03;1.67;;;;;;;12.97;100.00;101164.66;5006188;28;20721;-69
2024/01/24 00:51:09;;;;;;;4.80;1.58;;;;;;;12.98;100.00;101171.69;5022371;28;20052;-69
2024/01/24 00:53:37;;;;;;;2.97;1.27;;;;;;;12.98;100.00;101176.97;5005181;28;20576;-70
2024/01/24 00:56:05;;;;;;;2.03;1.30;;;;;;;13.01;100.00;101169.78;5006399;28;20045;-70
2024/01/24 00:58:32;;;;;;;2.20;1.30;;;;;;;13.01;100.00;101177.72;5006178;28;20073;-69
2024/01/24 01:00:59;;;;;;;2.33;1.23;;;;;;;13.01;100.00;101167.13;5005655;28;20579;-70
2024/01/24 01:03:26;;;;;;;2.60;1.30;;;;;;;13.01;100.00;101145.97;4994722;28;20042;-69
2024/01/24 01:05:54;;;;;;;3.22;1.30;;;;;;;13.01;100.00;101145.97;5004733;28;20042;-70
2024/01/24 01:08:21;;;;;;;4.03;1.30;;;;;;;13.04;100.00;101147.63;5000704;28;20100;-70
2024/01/24 01:10:48;;;;;;;4.70;1.45;;;;;;;13.04;100.00;101151.16;5005204;28;20038;-70
2024/01/24 01:13:15;;;;;;;2.78;1.27;;;;;;;13.04;100.00;101158.22;4995337;28;20064;-69
2024/01/24 01:15:42;;;;;;;4.88;1.88;;;;;;;13.01;100.00;101179.50;5007410;28;20045;-69
2024/01/24 01:18:10;;;;;;;2.72;1.40;;;;;;;12.96;100.00;101168.22;5006540;28;20580;-69
2024/01/24 01:20:37;;;;;;;2.20;1.20;;;;;;;12.91;100.00;101149.84;5004450;28;20064;-70
2024/01/24 01:23:04;;;;;;;2.17;1.40;;;;;;;12.86;100.00;101150.00;5008081;28;20624;-70
2024/01/24 01:25:31;;;;;;;3.08;1.50;;;;;;;12.89;100.00;101154.31;5008313;28;20038;-69
2024/01/24 01:27:58;;;;;;;2.20;1.30;;;;;;;12.92;100.00;101137.50;5008692;28;20046;-70
2024/01/24 01:30:25;;;;;;;3.13;1.38;;;;;;;12.90;100.00;101145.47;5008424;28;20045;-69
2024/01/24 01:32:52;;;;;;;3.83;1.20;;;;;;;12.91;100.00;101155.16;5021996;28;20046;-70
2024/01/24 01:35:20;;;;;;;2.83;1.40;;;;;;;12.91;100.00;101141.06;5005847;28;20100;-70
2024/01/24 01:37:47;;;;;;;2.00;1.23;;;;;;;12.89;100.00;101138.44;5008199;28;20071;-69
2024/01/24 01:40:14;;;;;;;2.97;1.33;;;;;;;12.88;100.00;101140.25;5007663;28;20042;-68
2024/01/24 01:42:45;;;;;;;5.25;1.40;;;;;;;12.91;100.00;101143.72;5002426;28;20104;-68
2024/01/24 01:45:12;;;;;;;3.47;1.48;;;;;;;12.91;100.00;101147.22;5009205;28;20045;-69
2024/01/24 01:47:40;;;;;;;2.80;1.15;;;;;;;12.93;100.00;101161.25;5009112;28;20103;-69
2024/01/24 01:50:10;;;;;;;1.67;0.95;;;;;;;12.92;100.00;101148.94;5009610;28;20081;-69
2024/01/24 01:52:40;;;;;;;3.00;1.48;;;;;;;12.93;100.00;101155.97;5003289;28;20136;-69
2024/01/24 01:55:11;;;;;;;1.60;1.20;;;;;;;12.95;100.00;101166.47;5009300;28;20052;-69
2024/01/24 01:57:43;;;;;;;2.22;1.10;;;;;;;12.97;100.00;101149.63;5006934;28;20057;-69
2024/01/24 02:00:20;;;;;;;1.80;1.20;;;;;;;12.95;100.00;101159.44;5004387;28;20042;-69
2024/01/24 02:02:48;;;;;;;1.85;1.20;;;;;;;12.94;100.00;101164.75;5006248;28;20041;-68
2024/01/24 02:05:16;;;;;;;3.63;1.35;;;;;;;12.89;100.00;101155.22;5000598;28;20120;-69
2024/01/24 02:07:45;;;;;;;3.40;1.40;;;;;;;12.81;100.00;101136.09;5005186;28;20041;-68
2024/01/24 02:10:14;;;;;;;4.13;1.17;;;;;;;12.73;100.00;101139.00;4992525;28;20117;-69
2024/01/24 02:12:41;;;;;;;1.88;1.20;;;;;;;12.64;100.00;101133.16;5006402;28;20054;-69
2024/01/24 02:15:09;;;;;;;3.13;1.15;;;;;;;12.57;100.00;101140.44;4995415;28;20048;-69
2024/01/24 02:17:37;;;;;;;2.17;1.38;;;;;;;12.47;100.00;101129.31;5009017;28;20042;-69
2024/01/24 02:20:09;;;;;;;3.13;1.38;;;;;;;12.40;100.00;101130.44;5002165;28;20552;-69
2024/01/24 02:22:37;;;;;;;1.40;1.10;;;;;;;12.36;100.00;101134.09;5009567;28;20050;-70
2024/01/24 02:25:05;;;;;;;1.92;1.10;;;;;;;12.34;100.00;101146.50;5007152;28;20038;-69
2024/01/24 02:27:32;;;;;;;2.38;1.10;;;;;;;12.32;100.00;101141.25;5007118;28;20576;-68
2024/01/24 02:29:59;;;;;;;1.60;1.10;;;;;;;12.30;100.00;101142.22;5008219;28;20588;-69
2024/01/24 02:32:26;;;;;;;2.92;1.20;;;;;;;12.24;100.00;101133.56;5007287;28;20104;-69
2024/01/24 02:34:53;;;;;;;2.28;1.35;;;;;;;12.20;100.00;101110.81;5005452;28;20046;-69
2024/01/24 02:37:20;;;;;;;1.52;0.88;;;;;;;12.15;100.00;101125.94;5001793;28;20038;-70
2024/01/24 02:39:48;;;;;;;2.28;1.13;;;;;;;12.15;100.00;101117.16;5000449;28;20092;-68
2024/01/24 02:42:15;;;;;;;2.45;1.10;;;;;;;12.11;100.00;101108.44;5008023;28;20034;-69
2024/01/24 02:44:43;;;;;;;1.80;1.10;;;;;;;12.09;100.00;101121.72;5007587;28;20126;-68
2024/01/24 02:47:10;;;;;;;1.55;0.95;;;;;;;12.10;100.00;101136.66;5004604;28;20042;-69
2024/01/24 02:49:39;;;;;;;1.30;0.90;;;;;;;12.12;100.00;101141.88;5006348;28;20060;-69
2024/01/24 02:52:06;;;;;;;1.08;0.93;;;;;;;12.13;100.00;101130.41;5007382;28;20042;-69
2024/01/24 02:54:37;;;;;;;1.75;0.98;;;;;;;12.15;100.00;101138.31;5007658;28;20096;-69
2024/01/24 02:57:04;;;;;;;0.90;0.80;;;;;;;12.11;100.00;101137.50;5005414;28;20585;-70
2024/01/24 02:59:32;;;;;;;2.80;0.82;;;;;;;12.12;100.00;101149.81;5008766;28;20062;-69
2024/01/24 03:01:59;;;;;;;2.47;0.90;;;;;;;12.11;100.00;101145.44;5004653;28;20057;-69
2024/01/24 03:04:26;;;;;;;2.00;0.80;;;;;;;12.07;100.00;101139.41;5008267;28;20097;-71
2024/01/24 03:06:55;;;;;;;1.30;0.80;;;;;;;12.03;100.00;101116.66;5007271;28;20042;-71
2024/01/24 03:09:23;;;;;;;2.38;0.98;;;;;;;12.05;100.00;101117.47;5006783;28;20691;-71
2024/01/24 03:11:50;;;;;;;0.80;0.80;;;;;;;12.08;100.00;101114.69;5003261;28;20046;-71
2024/01/24 03:14:17;;;;;;;2.17;1.02;;;;;;;12.11;100.00;101132.22;4989859;28;20042;-71
2024/01/24 03:16:45;;;;;;;1.35;0.90;;;;;;;12.10;100.00;101162.25;5006634;28;20042;-71
2024/01/24 03:19:13;;;;;;;0.85;0.80;;;;;;;12.08;100.00;101172.00;5008986;28;20073;-69
2024/01/24 03:21:41;;;;;;;0.88;0.77;;;;;;;12.05;100.00;101165.03;5007999;28;20052;-69
2024/01/24 03:24:08;;;;;;;2.20;0.90;;;;;;;12.05;100.00;101165.03;5003005;28;20069;-69
2024/01/24 03:26:35;;;;;;;1.77;0.88;;;;;;;12.05;100.00;101169.44;4990426;28;20042;-69
2024/01/24 03:29:02;;;;;;;1.77;1.00;;;;;;;12.04;100.00;101173.88;4993453;28;20056;-70
2024/01/24 03:31:29;;;;;;;1.50;1.40;;;;;;;12.00;100.00;101180.16;5002255;28;20125;-70
2024/01/24 03:33:57;;;;;;;1.50;1.20;;;;;;;11.98;100.00;101162.63;5005845;28;20045;-69
2024/01/24 03:36:24;;;;;;;1.35;1.25;;;;;;;11.93;100.00;101190.00;5004408;28;20537;-71
2024/01/24 03:38:51;;;;;;;2.00;1.38;;;;;;;11.91;100.00;101183.88;5005622;28;20056;-70
2024/01/24 03:41:18;;;;;;;2.40;1.40;;;;;;;11.89;100.00;101185.75;5001858;28;20097;-69
2024/01/24 03:43:45;;;;;;;2.88;1.70;;;;;;;11.84;100.00;101195.56;5017452;28;20046;-69
2024/01/24 03:46:12;;;;;;;1.70;1.50;;;;;;;11.85;100.00;101214.94;5001010;28;20397;-69
2024/01/24 03:48:40;;;;;;;3.08;2.10;;;;;;;11.84;100.00;101187.63;5006084;28;20528;-69
2024/01/24 03:51:08;;;;;;;2.92;2.05;;;;;;;11.79;100.00;101211.56;5006106;28;20060;-69
2024/01/24 03:53:35;;;;;;;3.90;2.13;;;;;;;11.76;100.00;101224.00;5004987;28;20167;-69
2024/01/24 03:56:03;;;;;;;3.72;1.98;;;;;;;11.72;100.00;101217.06;5005970;28;20048;-69
2024/01/24 03:58:30;;;;;;;4.38;2.08;;;;;;;11.77;100.00;101196.66;5007507;28;20136;-69
2024/01/24 04:00:58;;;;;;;4.60;2.05;;;;;;;11.79;100.00;101206.28;4988731;28;20478;-68
2024/01/24 04:03:25;;;;;;;2.78;1.50;;;;;;;11.86;100.00;101227.22;5005345;28;20054;-69
2024/01/24 04:05:53;;;;;;;6.10;1.77;;;;;;;11.89;100.00;101229.78;5006667;28;20571;-69
2024/01/24 04:08:20;;;;;;;3.50;1.42;;;;;;;11.92;100.00;101238.47;5005504;28;20037;-68
2024/01/24 04:10:47;;;;;;;2.03;1.50;;;;;;;11.95;100.00;101227.81;5018369;28;20061;-68
2024/01/24 04:13:14;;;;;;;5.50;2.20;;;;;;;11.96;100.00;101196.97;5005437;28;20046;-68
2024/01/24 04:15:42;;;;;;;4.22;1.50;;;;;;;11.96;100.00;101191.69;5006786;28;20046;-68
2024/01/24 04:18:11;;;;;;;6.97;1.98;;;;;;;11.95;100.00;101196.09;4989711;28;20104;-68
2024/01/24 04:20:39;;;;;;;3.83;1.60;;;;;;;11.93;100.00;101218.22;5006444;28;20042;-69
2024/01/24 04:23:06;;;;;;;6.85;1.90;;;;;;;11.89;100.00;101221.84;5008258;28;20466;-69
2024/01/24 04:25:33;;;;;;;6.38;1.77;;;;;;;11.85;100.00;101241.34;5006301;28;20041;-68
2024/01/24 04:28:00;;;;;;;5.50;1.92;;;;;;;11.84;100.00;101232.53;5003307;28;20125;-69
2024/01/24 04:30:27;;;;;;;9.23;1.70;;;;;;;11.85;100.00;101225.50;5005935;28;20417;-70
2024/01/24 04:32:54;;;;;;;7.10;2.08;;;;;;;11.86;100.00;101246.59;5002574;28;20046;-69
2024/01/24 04:35:22;;;;;;;5.90;2.15;;;;;;;11.91;100.00;101267.59;5004321;28;20049;-69
2024/01/24 04:37:49;;;;;;;10.43;2.38;;;;;;;11.91;100.00;101262.31;5006913;28;20121;-67
2024/01/24 04:40:16;;;;;;;14.15;2.70;;;;;;;11.88;100.00;101236.84;5003336;28;20433;-68
2024/01/24 04:42:43;;;;;;;8.93;2.28;;;;;;;11.89;100.00;101249.16;5006154;28;20518;-67
2024/01/24 04:45:11;;;;;;;8.50;2.22;;;;;;;11.90;100.00;101258.81;5004488;28;20064;-68
2024/01/24 04:47:42;;;;;;;11.60;2.38;;;;;;;11.92;100.00;101241.09;5007064;28;20049;-69
2024/01/24 04:50:11;;;;;;;13.60;2.40;;;;;;;11.94;100.00;101244.56;5005092;28;20049;-69
2024/01/24 04:52:38;;;;;;;16.60;3.30;;;;;;;11.90;100.00;101264.09;5006193;28;20134;-70
2024/01/24 04:55:11;;;;;;;10.90;3.10;;;;;;;11.92;100.00;101246.38;5003353;28;20042;-70
2024/01/24 04:57:39;;;;;;;14.02;2.90;;;;;;;11.91;100.00;101241.16;5007863;28;20054;-69
2024/01/24 05:00:08;;;;;;;14.63;2.95;;;;;;;11.89;100.00;101241.22;5009097;28;20057;-69
2024/01/24 05:02:36;;;;;;;16.50;3.58;;;;;;;11.89;100.00;101240.34;5009171;28;20137;-69
2024/01/24 05:05:06;;;;;;;15.63;3.25;;;;;;;11.89;100.00;101230.66;5008919;28;20053;-69
2024/01/24 05:07:35;;;;;;;18.35;3.58;;;;;;;11.86;100.00;101269.47;5008161;28;20041;-69
2024/01/24 05:10:04;;;;;;;15.27;3.75;;;;;;;11.82;100.00;101276.63;5009119;28;20050;-68
2024/01/24 05:12:31;;;;;;;13.63;3.15;;;;;;;11.84;100.00;101289.81;5007582;28;20433;-69
2024/01/24 05:14:58;;;;;;;16.77;4.15;;;;;;;11.83;99.88;101307.41;5008072;28;20046;-69
2024/01/24 05:17:26;;;;;;;14.02;2.97;;;;;;;11.83;99.32;101302.13;5007991;28;20060;-71
2024/01/24 05:19:54;;;;;;;19.73;3.97;;;;;;;11.86;96.78;101309.97;5010833;28;20100;-70
2024/01/24 05:22:21;;;;;;;14.65;3.25;;;;;;;11.89;95.96;101323.13;5008355;28;20057;-68
2024/01/24 05:24:48;;;;;;;11.70;3.50;;;;;;;11.91;94.51;101328.34;5008273;28;20038;-68
2024/01/24 05:27:16;;;;;;;20.65;3.28;;;;;;;11.86;95.66;101383.06;5008022;28;20046;-68
2024/01/24 05:29:45;;;;;;;14.30;2.95;;;;;;;11.85;95.46;101357.59;5009644;28;20095;-70
2024/01/24 05:32:13;;;;;;;16.63;2.95;;;;;;;11.82;95.05;101358.50;4991766;28;20414;-70
2024/01/24 05:34:40;;;;;;;17.30;4.00;;;;;;;11.79;95.95;101329.56;5006994;28;20049;-69
2024/01/24 05:37:08;;;;;;;19.73;4.15;;;;;;;11.80;93.30;101331.31;5008021;28;20050;-68
2024/01/24 05:39:35;;;;;;;19.48;3.40;;;;;;;11.79;93.20;101340.13;5007622;28;20091;-68
2024/01/24 05:42:03;;;;;;;15.45;4.13;;;;;;;11.80;91.24;101326.88;5006004;28;20046;-71
2024/01/24 05:44:30;;;;;;;19.63;3.83;;;;;;;11.81;93.22;101328.59;5006615;28;20046;-71
2024/01/24 05:47:00;;;;;;;18.30;3.53;;;;;;;11.84;92.58;101340.00;5002095;28;20485;-71
2024/01/24 05:49:33;;;;;;;18.48;3.63;;;;;;;11.84;92.28;101338.22;5006554;28;20066;-71
2024/01/24 05:52:01;;;;;;;18.23;3.72;;;;;;;11.82;93.25;101358.50;5007798;28;20124;-70
2024/01/24 05:54:28;;;;;;;18.08;3.72;;;;;;;11.85;92.26;101363.72;5007849;28;20056;-69
2024/01/24 05:56:55;;;;;;;22.88;4.18;;;;;;;11.85;92.37;101362.88;5003920;28;20049;-69
2024/01/24 05:59:23;;;;;;;18.23;3.72;;;;;;;11.84;92.41;101377.84;5007130;28;20191;-69
2024/01/24 06:01:55;;;;;;;16.70;3.58;;;;;;;11.83;91.44;101376.09;5022522;28;20185;-69
2024/01/24 06:04:22;;;;;;;21.52;4.47;;;;;;;11.83;92.59;101360.25;5007992;28;20049;-69
2024/01/24 06:06:49;;;;;;;16.77;4.13;;;;;;;11.83;91.97;101384.03;5009479;28;20042;-69
2024/01/24 06:09:20;;;;;;;22.27;4.45;;;;;;;11.79;92.02;101392.97;5009206;28;20038;-68
2024/01/24 06:11:48;;;;;;;26.10;4.22;;;;;;;11.74;92.98;101410.69;5007257;28;20049;-68
2024/01/24 06:14:16;;;;;;;18.60;3.85;;;;;;;11.71;93.34;101410.75;5006415;28;20058;-68
2024/01/24 06:16:43;;;;;;;28.13;4.43;;;;;;;11.69;94.21;101404.69;5008856;28;20034;-69
2024/01/24 06:19:10;;;;;;;20.50;4.20;;;;;;;11.67;94.57;101417.91;5010503;28;20143;-69
2024/01/24 06:21:37;;;;;;;17.52;4.07;;;;;;;11.65;95.22;101422.34;5009542;28;20097;-69
2024/01/24 06:24:08;;;;;;;27.77;4.97;;;;;;;11.65;94.68;101419.72;5006751;28;20049;-69
2024/01/24 06:26:35;;;;;;;22.05;4.85;;;;;;;11.62;94.89;101419.81;5003480;28;20034;-69
2024/01/24 06:29:02;;;;;;;15.02;3.95;;;;;;;11.60;95.89;101424.25;5008016;28;20041;-68
2024/01/24 06:31:30;;;;;;;27.30;4.88;;;;;;;11.61;95.27;101444.47;5007659;28;20120;-68
2024/01/24 06:33:57;;;;;;;23.33;4.10;;;;;;;11.62;94.57;101451.50;5008238;28;20165;-70
2024/01/24 06:36:25;;;;;;;21.50;4.18;;;;;;;11.58;94.45;101455.09;5009484;28;20128;-68
2024/01/24 06:38:52;;;;;;;28.75;4.80;;;;;;;11.57;94.29;101472.75;5009311;28;20088;-68
2024/01/24 06:41:19;;;;;;;33.72;4.85;;;;;;;11.56;92.26;101460.44;5002337;28;20453;-69
2024/01/24 06:43:46;;;;;;;26.75;4.95;;;;;;;11.56;91.94;101485.97;5007200;28;20044;-68
2024/01/24 06:46:13;;;;;;;28.25;4.90;;;;;;;11.53;90.41;101504.53;5014588;28;20030;-68
2024/01/24 06:48:41;;;;;;;21.52;3.95;;;;;;;11.49;88.73;101499.31;5007920;28;20595;-69
2024/01/24 06:51:12;;;;;;;25.30;4.45;;;;;;;11.44;87.71;101502.97;5011693;28;20063;-69
2024/01/24 06:53:39;;;;;;;23.70;4.13;;;;;;;11.42;88.92;101516.22;5006632;28;20065;-68
2024/01/24 06:56:08;;;;;;;17.98;4.55;;;;;;;11.38;88.02;101526.88;5004497;28;20129;-69
2024/01/24 06:58:37;;;;;;;25.13;5.43;;;;;;;11.32;87.38;101509.41;5005188;28;20080;-68
2024/01/24 07:01:04;;;;;;;23.30;5.78;;;;;;;11.27;86.73;101569.34;5006066;28;20073;-68
2024/01/24 07:03:32;;;;;;;30.20;6.05;;;;;;;11.19;87.05;101580.94;5004234;28;20046;-69
2024/01/24 07:06:00;;;;;;;28.38;5.43;;;;;;;11.13;87.25;101581.06;5006747;28;20045;-69
2024/01/24 07:08:27;;;;;;;25.73;4.68;;;;;;;11.08;86.96;101561.81;5004909;28;20068;-68
2024/01/24 07:10:54;;;;;;;28.65;5.45;;;;;;;11.02;87.96;101564.59;5006242;28;20042;-68
2024/01/24 07:13:22;;;;;;;36.35;6.00;;;;;;;10.93;87.90;101549.81;5005676;28;20554;-69
2024/01/24 07:15:49;;;;;;;27.40;5.78;;;;;;;10.82;89.07;101546.53;5018262;28;20049;-69
2024/01/24 07:18:16;;;;;;;28.85;5.28;;;;;;;10.75;88.60;101556.31;5009315;28;20065;-68
2024/01/24 07:20:43;;;;;;;32.15;5.88;;;;;;;10.71;88.58;101567.84;5007766;28;20050;-68
2024/01/24 07:23:10;;;;;;;33.05;5.55;;;;;;;10.65;88.93;101575.84;5008631;28;20038;-69
2024/01/24 07:25:37;;;;;;;26.77;5.28;;;;;;;10.59;89.64;101575.97;5008756;28;20054;-69
2024/01/24 07:28:06;;;;;;;23.23;5.22;;;;;;;10.57;88.85;101578.66;5005495;28;20119;-68
2024/01/24 07:30:33;;;;;;;29.90;5.32;;;;;;;10.53;88.67;101587.50;5008090;28;20164;-68
2024/01/24 07:33:03;;;;;;;35.47;7.05;;;;;;;10.49;88.63;101584.06;5007584;28;20139;-68
2024/01/24 07:35:30;;;;;;;37.58;6.80;;;;;;;10.44;88.70;101572.72;5008305;28;20593;-69
2024/01/24 07:37:57;;;;;;;31.27;5.70;;;;;;;10.39;88.63;101582.47;4992495;28;20065;-68
2024/01/24 07:40:24;;;;;;;33.35;5.90;;;;;;;10.35;88.97;101593.94;5008618;28;20046;-68
2024/01/24 07:42:52;;;;;;;24.90;5.85;;;;;;;10.30;89.09;101611.59;5007941;28;20077;-68
2024/01/24 07:45:22;;;;;;;26.42;5.38;;;;;;;10.25;89.46;101611.69;4988672;28;20046;-68
2024/01/24 07:47:51;;;;;;;33.50;5.30;;;;;;;10.22;89.39;101601.19;4989521;28;20542;-68
2024/01/24 07:50:19;;;;;;;33.35;6.78;;;;;;;10.21;89.41;101608.22;5001660;28;20038;-68
2024/01/24 07:52:47;;;;;;;28.27;5.38;;;;;;;10.19;89.16;101614.41;5007470;28;20069;-68
2024/01/24 07:55:15;;;;;;;37.78;5.70;;;;;;;10.23;88.42;101624.88;5007511;28;20042;-68
2024/01/24 07:57:50;;;;;;;33.95;5.53;;;;;;;10.25;88.78;101630.13;5009378;28;20100;-68
2024/01/24 08:00:18;;;;;;;32.30;5.45;;;;;;;10.22;88.96;101644.22;5007819;28;20052;-68
2024/01/24 08:02:46;;;;;;;28.02;5.88;;;;;;;10.21;89.19;101649.50;5008582;28;20124;-68
2024/01/24 08:05:17;;;;;;;31.85;5.28;;;;;;;10.16;89.79;101648.72;5008426;28;20069;-68
2024/01/24 08:07:45;;;;;;;36.80;6.53;;;;;;;10.15;89.68;101660.16;5007650;28;20049;-68
2024/01/24 08:10:12;;;;;;;34.53;5.65;;;;;;;10.17;89.58;101656.59;5008207;28;20045;-68
2024/01/24 08:12:40;;;;;;;35.58;6.05;;;;;;;10.14;89.84;101646.09;5007473;28;20042;-69
2024/01/24 08:15:08;;;;;;;34.08;5.13;;;;;;;10.13;88.96;101657.53;5008592;28;20076;-68
2024/01/24 08:17:36;;;;;;;29.63;5.85;;;;;;;10.17;87.22;101653.97;5007781;28;20045;-68
2024/01/24 08:20:04;;;;;;;28.58;5.22;;;;;;;10.15;88.42;101665.44;5008552;28;20147;-69
2024/01/24 08:22:32;;;;;;;26.85;6.45;;;;;;;10.14;88.16;101682.97;5008117;28;20104;-69
2024/01/24 08:25:00;;;;;;;29.95;5.93;;;;;;;10.16;86.60;101670.66;5008035;28;20070;-68
2024/01/24 08:27:28;;;;;;;29.67;5.75;;;;;;;10.21;86.15;101670.59;5011452;28;20074;-68
2024/01/24 08:29:56;;;;;;;27.52;5.15;;;;;;;10.22;86.42;101662.69;5007107;28;20523;-68
2024/01/24 08:32:25;;;;;;;31.20;5.78;;;;;;;10.23;86.15;101682.84;5010447;28;20049;-68
2024/01/24 08:34:53;;;;;;;26.95;5.55;;;;;;;10.20;85.74;101690.81;5010628;28;20053;-68
2024/01/24 08:37:20;;;;;;;28.08;5.15;;;;;;;10.17;86.03;101682.09;5011754;28;20049;-68
2024/01/24 08:39:47;;;;;;;26.10;4.90;;;;;;;10.16;84.81;101697.00;5012238;28;20096;-68
2024/01/24 08:42:14;;;;;;;27.52;5.72;;;;;;;10.17;84.15;101717.19;5011436;28;20037;-68
2024/01/24 08:44:42;;;;;;;26.98;5.40;;;;;;;10.22;84.44;101709.22;5012208;28;20041;-68
2024/01/24 08:47:09;;;;;;;31.50;5.72;;;;;;;10.21;84.25;101723.28;5012141;28;20654;-68
2024/01/24 08:49:37;;;;;;;30.80;5.18;;;;;;;10.24;83.97;101720.63;5012305;28;20463;-68
2024/01/24 08:52:04;;;;;;;27.25;4.95;;;;;;;10.25;84.83;101712.69;5011920;28;20100;-68
2024/01/24 08:54:32;;;;;;;33.78;6.55;;;;;;;10.25;85.38;101725.84;5023980;28;20038;-68
2024/01/24 08:57:01;;;;;;;34.40;6.32;;;;;;;10.29;83.90;101728.47;5010567;28;20045;-68
2024/01/24 08:59:28;;;;;;;26.05;6.00;;;;;;;10.29;84.40;101731.09;5011594;28;20056;-68
2024/01/24 09:01:57;;;;;;;34.03;5.85;;;;;;;10.29;84.31;101739.84;5012206;28;20165;-68
2024/01/24 09:04:24;;;;;;;30.60;5.22;;;;;;;10.31;84.05;101724.03;5015083;28;20050;-68
2024/01/24 09:06:52;;;;;;;27.52;5.72;;;;;;;10.32;83.65;101731.91;5011775;28;20049;-68
2024/01/24 09:09:20;;;;;;;30.95;5.72;;;;;;;10.30;84.62;101733.69;5011503;28;20497;-68
2024/01/24 09:11:48;;;;;;;31.02;5.82;;;;;;;10.30;84.64;101748.66;5010845;28;20052;-68
2024/01/24 09:14:24;;;;;;;35.80;6.88;;;;;;;10.29;84.94;101760.94;5010510;28;20076;-68
2024/01/24 09:16:52;;;;;;;35.83;6.90;;;;;;;10.33;85.03;101785.47;4997055;28;20041;-68
2024/01/24 09:19:20;;;;;;;32.00;5.38;;;;;;;10.41;84.65;101783.66;5011299;28;20473;-68
2024/01/24 09:21:48;;;;;;;29.08;5.60;;;;;;;10.47;84.60;101757.19;5009978;28;20139;-68
2024/01/24 09:24:16;;;;;;;35.60;6.43;;;;;;;10.56;83.55;101761.47;5011284;28;20500;-68
2024/01/24 09:26:43;;;;;;;33.10;5.43;;;;;;;10.62;83.10;101769.28;5025575;28;20050;-68
2024/01/24 09:29:12;;;;;;;29.50;6.18;;;;;;;10.64;83.69;101761.31;5010119;28;20533;-68
2024/01/24 09:31:43;;;;;;;29.30;5.97;;;;;;;10.67;83.72;101785.03;5006798;28;20054;-68
2024/01/24 09:34:11;;;;;;;31.73;5.65;;;;;;;10.72;83.83;101784.06;5003862;28;20128;-68
2024/01/24 09:36:39;;;;;;;27.80;5.25;;;;;;;10.72;83.99;101794.59;5011423;28;20072;-68
2024/01/24 09:39:09;;;;;;;33.15;5.10;;;;;;;10.71;83.49;101810.47;5010814;28;20042;-68
2024/01/24 09:41:42;;;;;;;30.50;5.72;;;;;;;10.70;83.87;101840.38;5010293;28;20053;-68
2024/01/24 09:44:11;;;;;;;28.73;5.40;;;;;;;10.74;83.45;101839.41;5009591;28;20618;-68
2024/01/24 09:46:42;;;;;;;30.13;6.07;;;;;;;10.78;83.35;101846.41;5010769;28;20042;-68
2024/01/24 09:49:14;;;;;;;30.70;5.57;;;;;;;10.77;83.49;101851.69;5010708;28;20038;-68
2024/01/24 09:51:44;;;;;;;28.10;5.15;;;;;;;10.75;81.41;101849.06;5012349;28;20278;-68
2024/01/24 09:54:12;;;;;;;32.60;6.05;;;;;;;10.75;81.65;101856.13;5025672;28;20134;-68
2024/01/24 09:56:40;;;;;;;30.00;5.95;;;;;;;10.76;81.92;101860.50;5026098;28;20049;-68
2024/01/24 09:59:08;;;;;;;26.95;5.40;;;;;;;10.74;81.65;101863.16;5009055;28;20042;-68
2024/01/24 10:01:39;;;;;;;29.23;5.00;;;;;;;10.74;81.27;101864.94;5010551;28;20049;-68
2024/01/24 10:04:07;;;;;;;34.15;5.43;;;;;;;10.77;81.34;101856.97;5010538;28;20115;-69
2024/01/24 10:06:39;;;;;;;25.52;4.90;;;;;;;10.86;80.46;101881.44;5011481;28;20073;-68
2024/01/24 10:09:07;;;;;;;21.02;4.68;;;;;;;10.95;79.91;101867.25;5010543;28;20053;-68
2024/01/24 10:11:35;;;;;;;24.92;5.65;;;;;;;11.02;80.21;101875.94;5010612;28;20201;-68
2024/01/24 10:14:02;;;;;;;22.20;4.93;;;;;;;11.01;79.12;101893.53;5009126;28;20042;-68
2024/01/24 10:16:29;;;;;;;28.67;5.22;;;;;;;11.00;79.80;101888.28;4991277;28;20050;-68
2024/01/24 10:18:57;;;;;;;22.30;5.25;;;;;;;11.00;79.36;101875.09;4989823;28;20384;-68
2024/01/24 10:21:27;;;;;;;31.02;5.78;;;;;;;10.98;80.47;101890.06;4991813;28;20132;-68
2024/01/24 10:23:56;;;;;;;22.42;5.28;;;;;;;10.98;79.12;101888.31;5008891;28;20042;-68
2024/01/24 10:26:26;;;;;;;26.92;6.38;;;;;;;11.01;79.99;101934.88;5009066;28;20046;-69
2024/01/24 10:28:53;;;;;;;29.63;5.25;;;;;;;11.02;79.31;101882.06;5023563;28;20038;-69
2024/01/24 10:31:24;;;;;;;24.85;4.80;;;;;;;11.06;79.21;101901.38;5009851;28;20045;-69
2024/01/24 10:33:58;;;;;;;29.30;5.25;;;;;;;11.12;78.75;101890.72;5009682;28;20050;-68
2024/01/24 10:36:27;;;;;;;30.63;5.63;;;;;;;11.16;79.38;101910.88;5009613;28;20041;-68
2024/01/24 10:39:04;;;;;;;26.02;5.35;;;;;;;11.25;77.99;101925.72;5009482;28;20548;-69
2024/01/24 10:41:39;;;;;;;36.50;6.35;;;;;;;11.29;78.53;101895.72;5021618;28;20042;-68
2024/01/24 10:44:09;;;;;;;23.77;4.72;;;;;;;11.34;77.96;101899.16;5000590;28;20100;-68
2024/01/24 10:46:38;;;;;;;32.22;5.55;;;;;;;11.40;77.24;101903.47;4990449;28;20046;-68
2024/01/24 10:49:07;;;;;;;28.95;5.43;;;;;;;11.42;77.45;101914.88;5005426;28;20523;-68
2024/01/24 10:51:34;;;;;;;19.80;4.53;;;;;;;11.42;76.04;101928.09;5006964;28;20132;-68
2024/01/24 10:54:05;;;;;;;32.65;5.75;;;;;;;11.41;76.40;101936.00;5009743;28;20046;-68
2024/01/24 10:56:34;;;;;;;36.58;5.60;;;;;;;11.33;76.94;101926.47;4994500;28;20037;-69
2024/01/24 10:59:03;;;;;;;33.80;5.25;;;;;;;11.29;76.41;101942.38;5007917;28;20058;-68
2024/01/24 11:01:31;;;;;;;32.08;6.15;;;;;;;11.25;76.99;101941.56;5007824;28;20445;-69
2024/01/24 11:04:01;;;;;;;21.38;4.70;;;;;;;11.24;76.65;101946.88;5009293;28;20076;-68
2024/01/24 11:06:33;;;;;;;34.40;5.55;;;;;;;11.29;75.90;101942.38;5007594;28;20498;-68
2024/01/24 11:09:22;;;;;;;24.27;5.85;;;;;;;11.32;76.34;101950.25;5009073;28;20041;-68
2024/01/24 11:12:00;;;;;;;28.15;5.35;;;;;;;11.34;76.14;101961.66;5014769;28;20084;-68
2024/01/24 11:14:33;;;;;;;20.88;4.65;;;;;;;11.35;75.35;101955.47;5007455;28;20414;-68
2024/01/24 11:17:03;;;;;;;29.00;5.35;;;;;;;11.37;75.74;101950.19;5008633;28;20050;-68
2024/01/24 11:19:31;;;;;;;33.08;6.22;;;;;;;11.38;74.48;101955.44;5009743;28;20497;-69
2024/01/24 11:22:09;;;;;;;33.78;5.68;;;;;;;11.32;75.18;101966.94;5007456;28;20529;-68